sensor_id;sensor_type;location;lat;lon;timestamp;P1;durP1;ratioP1;P2;durP2;ratioP2
55362;SDS011;41244;49.242;9.060;2022-07-21T00:02:07;17.52;;;14.80;;
55362;SDS011;41244;49.242;9.060;2022-07-21T00:04:33;19.13;;;17.27;;
55362;SDS011;41244;49.242;9.060;2022-07-21T00:06:59;20.23;;;17.35;;
55362;SDS011;41244;49.242;9.060;2022-07-21T00:09:25;21.75;;;19.42;;
55362;SDS011;41244;49.242;9.060;2022-07-21T00:11:50;22.58;;;20.38;;
55362;SDS011;41244;49.242;9.060;2022-07-21T00:14:17;22.23;;;19.85;;
55362;SDS011;41244;49.242;9.060;2022-07-21T00:16:42;24.20;;;21.50;;
55362;SDS011;41244;49.242;9.060;2022-07-21T00:19:09;22.17;;;20.00;;
55362;SDS011;41244;49.242;9.060;2022-07-21T00:21:35;20.25;;;18.05;;
55362;SDS011;41244;49.242;9.060;2022-07-21T00:24:01;20.25;;;18.25;;
55362;SDS011;41244;49.242;9.060;2022-07-21T00:26:27;20.95;;;18.50;;
55362;SDS011;41244;49.242;9.060;2022-07-21T00:28:53;20.38;;;18.63;;
55362;SDS011;41244;49.242;9.060;2022-07-21T00:31:19;19.70;;;17.45;;
55362;SDS011;41244;49.242;9.060;2022-07-21T00:33:45;19.00;;;17.00;;
55362;SDS011;41244;49.242;9.060;2022-07-21T00:36:10;17.75;;;15.98;;
55362;SDS011;41244;49.242;9.060;2022-07-21T00:38:36;18.80;;;16.77;;
55362;SDS011;41244;49.242;9.060;2022-07-21T00:41:02;19.75;;;17.73;;
55362;SDS011;41244;49.242;9.060;2022-07-21T00:43:28;21.52;;;19.13;;
55362;SDS011;41244;49.242;9.060;2022-07-21T00:45:54;18.95;;;17.15;;
55362;SDS011;41244;49.242;9.060;2022-07-21T00:48:20;18.92;;;17.10;;
55362;SDS011;41244;49.242;9.060;2022-07-21T00:50:46;18.27;;;16.35;;
55362;SDS011;41244;49.242;9.060;2022-07-21T00:53:12;18.88;;;16.17;;
55362;SDS011;41244;49.242;9.060;2022-07-21T00:55:38;19.08;;;17.13;;
55362;SDS011;41244;49.242;9.060;2022-07-21T00:58:08;21.50;;;18.55;;
55362;SDS011;41244;49.242;9.060;2022-07-21T01:00:34;18.77;;;16.98;;
55362;SDS011;41244;49.242;9.060;2022-07-21T01:03:01;21.00;;;19.02;;
55362;SDS011;41244;49.242;9.060;2022-07-21T01:05:26;20.33;;;18.40;;
55362;SDS011;41244;49.242;9.060;2022-07-21T01:07:53;19.02;;;17.23;;
55362;SDS011;41244;49.242;9.060;2022-07-21T01:10:22;18.08;;;16.30;;
55362;SDS011;41244;49.242;9.060;2022-07-21T01:12:49;20.90;;;18.17;;
55362;SDS011;41244;49.242;9.060;2022-07-21T01:15:16;21.05;;;18.83;;
55362;SDS011;41244;49.242;9.060;2022-07-21T01:17:43;23.35;;;20.85;;
55362;SDS011;41244;49.242;9.060;2022-07-21T01:20:11;21.13;;;19.13;;
55362;SDS011;41244;49.242;9.060;2022-07-21T01:22:41;24.83;;;20.83;;
55362;SDS011;41244;49.242;9.060;2022-07-21T01:25:10;22.10;;;18.90;;
55362;SDS011;41244;49.242;9.060;2022-07-21T01:27:37;22.67;;;19.90;;
55362;SDS011;41244;49.242;9.060;2022-07-21T01:30:04;23.50;;;20.40;;
55362;SDS011;41244;49.242;9.060;2022-07-21T01:32:35;20.50;;;18.52;;
55362;SDS011;41244;49.242;9.060;2022-07-21T01:35:03;22.48;;;20.23;;
55362;SDS011;41244;49.242;9.060;2022-07-21T01:37:31;22.17;;;19.08;;
55362;SDS011;41244;49.242;9.060;2022-07-21T01:40:00;23.58;;;20.98;;
55362;SDS011;41244;49.242;9.060;2022-07-21T01:42:45;22.65;;;19.95;;
55362;SDS011;41244;49.242;9.060;2022-07-21T01:45:10;22.83;;;20.52;;
55362;SDS011;41244;49.242;9.060;2022-07-21T01:47:36;24.08;;;21.63;;
55362;SDS011;41244;49.242;9.060;2022-07-21T01:50:02;23.38;;;20.38;;
55362;SDS011;41244;49.242;9.060;2022-07-21T01:52:28;22.67;;;20.38;;
55362;SDS011;41244;49.242;9.060;2022-07-21T01:54:54;23.25;;;20.92;;
55362;SDS011;41244;49.242;9.060;2022-07-21T01:57:20;22.48;;;19.95;;
55362;SDS011;41244;49.242;9.060;2022-07-21T01:59:46;23.95;;;19.90;;
55362;SDS011;41244;49.242;9.060;2022-07-21T02:02:12;22.42;;;19.75;;
55362;SDS011;41244;49.242;9.060;2022-07-21T02:04:37;22.05;;;19.85;;
55362;SDS011;41244;49.242;9.060;2022-07-21T02:07:03;20.33;;;18.42;;
55362;SDS011;41244;49.242;9.060;2022-07-21T02:09:29;23.02;;;20.65;;
55362;SDS011;41244;49.242;9.060;2022-07-21T02:11:55;19.85;;;17.85;;
55362;SDS011;41244;49.242;9.060;2022-07-21T02:14:21;22.33;;;19.08;;
55362;SDS011;41244;49.242;9.060;2022-07-21T02:16:46;21.58;;;18.75;;
55362;SDS011;41244;49.242;9.060;2022-07-21T02:19:12;21.00;;;18.90;;
55362;SDS011;41244;49.242;9.060;2022-07-21T02:21:38;21.42;;;19.27;;
55362;SDS011;41244;49.242;9.060;2022-07-21T02:24:04;22.27;;;20.00;;
55362;SDS011;41244;49.242;9.060;2022-07-21T02:26:31;22.58;;;19.70;;
55362;SDS011;41244;49.242;9.060;2022-07-21T02:28:57;23.60;;;21.20;;
55362;SDS011;41244;49.242;9.060;2022-07-21T02:31:22;22.23;;;19.88;;
55362;SDS011;41244;49.242;9.060;2022-07-21T02:33:48;22.35;;;19.45;;
55362;SDS011;41244;49.242;9.060;2022-07-21T02:36:14;21.73;;;19.70;;
55362;SDS011;41244;49.242;9.060;2022-07-21T02:38:40;21.45;;;19.25;;
55362;SDS011;41244;49.242;9.060;2022-07-21T02:41:06;22.77;;;20.42;;
55362;SDS011;41244;49.242;9.060;2022-07-21T02:43:31;20.77;;;18.83;;
55362;SDS011;41244;49.242;9.060;2022-07-21T02:45:57;22.52;;;20.15;;
55362;SDS011;41244;49.242;9.060;2022-07-21T02:48:23;22.38;;;20.15;;
55362;SDS011;41244;49.242;9.060;2022-07-21T02:50:49;23.42;;;20.92;;
55362;SDS011;41244;49.242;9.060;2022-07-21T02:53:15;22.45;;;20.15;;
55362;SDS011;41244;49.242;9.060;2022-07-21T02:55:44;23.73;;;20.98;;
55362;SDS011;41244;49.242;9.060;2022-07-21T02:58:15;24.05;;;21.70;;
55362;SDS011;41244;49.242;9.060;2022-07-21T03:00:50;25.13;;;22.52;;
55362;SDS011;41244;49.242;9.060;2022-07-21T03:03:22;25.92;;;23.15;;
55362;SDS011;41244;49.242;9.060;2022-07-21T03:05:52;24.60;;;22.20;;
55362;SDS011;41244;49.242;9.060;2022-07-21T03:08:18;26.70;;;23.98;;
55362;SDS011;41244;49.242;9.060;2022-07-21T03:10:46;26.70;;;24.20;;
55362;SDS011;41244;49.242;9.060;2022-07-21T03:13:12;26.45;;;23.75;;
55362;SDS011;41244;49.242;9.060;2022-07-21T03:15:38;25.83;;;23.00;;
55362;SDS011;41244;49.242;9.060;2022-07-21T03:18:05;26.20;;;23.70;;
55362;SDS011;41244;49.242;9.060;2022-07-21T03:20:32;24.20;;;21.40;;
55362;SDS011;41244;49.242;9.060;2022-07-21T03:23:01;25.45;;;23.05;;
55362;SDS011;41244;49.242;9.060;2022-07-21T03:25:27;25.08;;;22.63;;
55362;SDS011;41244;49.242;9.060;2022-07-21T03:27:53;26.73;;;24.23;;
55362;SDS011;41244;49.242;9.060;2022-07-21T03:30:20;25.75;;;23.20;;
55362;SDS011;41244;49.242;9.060;2022-07-21T03:32:47;24.67;;;22.20;;
55362;SDS011;41244;49.242;9.060;2022-07-21T03:35:13;22.85;;;20.48;;
55362;SDS011;41244;49.242;9.060;2022-07-21T03:37:43;23.88;;;21.60;;
55362;SDS011;41244;49.242;9.060;2022-07-21T03:40:14;28.25;;;23.67;;
55362;SDS011;41244;49.242;9.060;2022-07-21T03:42:42;24.42;;;21.88;;
55362;SDS011;41244;49.242;9.060;2022-07-21T03:45:08;24.40;;;21.98;;
55362;SDS011;41244;49.242;9.060;2022-07-21T03:47:35;23.85;;;21.60;;
55362;SDS011;41244;49.242;9.060;2022-07-21T03:50:01;24.30;;;21.95;;
55362;SDS011;41244;49.242;9.060;2022-07-21T03:52:28;24.20;;;21.80;;
55362;SDS011;41244;49.242;9.060;2022-07-21T03:54:54;23.25;;;20.80;;
55362;SDS011;41244;49.242;9.060;2022-07-21T03:57:34;23.77;;;21.38;;
55362;SDS011;41244;49.242;9.060;2022-07-21T04:00:05;23.67;;;21.17;;
55362;SDS011;41244;49.242;9.060;2022-07-21T04:02:38;22.10;;;19.67;;
55362;SDS011;41244;49.242;9.060;2022-07-21T04:05:07;22.05;;;19.75;;
55362;SDS011;41244;49.242;9.060;2022-07-21T04:07:35;21.90;;;19.60;;
55362;SDS011;41244;49.242;9.060;2022-07-21T04:10:02;23.52;;;20.15;;
55362;SDS011;41244;49.242;9.060;2022-07-21T04:12:28;21.45;;;19.55;;
55362;SDS011;41244;49.242;9.060;2022-07-21T04:14:54;22.92;;;20.67;;
55362;SDS011;41244;49.242;9.060;2022-07-21T04:17:21;22.48;;;20.27;;
55362;SDS011;41244;49.242;9.060;2022-07-21T04:19:47;21.13;;;19.08;;
55362;SDS011;41244;49.242;9.060;2022-07-21T04:22:13;22.70;;;20.50;;
55362;SDS011;41244;49.242;9.060;2022-07-21T04:24:39;23.23;;;19.92;;
55362;SDS011;41244;49.242;9.060;2022-07-21T04:27:05;23.45;;;21.15;;
55362;SDS011;41244;49.242;9.060;2022-07-21T04:29:31;22.70;;;20.40;;
55362;SDS011;41244;49.242;9.060;2022-07-21T04:31:57;22.73;;;20.35;;
55362;SDS011;41244;49.242;9.060;2022-07-21T04:34:23;22.40;;;20.20;;
55362;SDS011;41244;49.242;9.060;2022-07-21T04:36:49;22.83;;;20.45;;
55362;SDS011;41244;49.242;9.060;2022-07-21T04:39:15;22.30;;;20.15;;
55362;SDS011;41244;49.242;9.060;2022-07-21T04:41:40;22.48;;;20.25;;
55362;SDS011;41244;49.242;9.060;2022-07-21T04:44:06;22.42;;;20.17;;
55362;SDS011;41244;49.242;9.060;2022-07-21T04:46:32;22.83;;;20.63;;
55362;SDS011;41244;49.242;9.060;2022-07-21T04:48:58;22.20;;;20.05;;
55362;SDS011;41244;49.242;9.060;2022-07-21T04:51:24;21.65;;;19.45;;
55362;SDS011;41244;49.242;9.060;2022-07-21T04:53:49;21.17;;;19.10;;
55362;SDS011;41244;49.242;9.060;2022-07-21T04:56:15;21.08;;;18.85;;
55362;SDS011;41244;49.242;9.060;2022-07-21T04:58:41;21.45;;;19.27;;
55362;SDS011;41244;49.242;9.060;2022-07-21T05:01:07;22.65;;;20.20;;
55362;SDS011;41244;49.242;9.060;2022-07-21T05:03:32;21.13;;;19.13;;
55362;SDS011;41244;49.242;9.060;2022-07-21T05:05:58;20.92;;;18.85;;
55362;SDS011;41244;49.242;9.060;2022-07-21T05:08:24;23.55;;;21.23;;
55362;SDS011;41244;49.242;9.060;2022-07-21T05:10:51;22.40;;;20.17;;
55362;SDS011;41244;49.242;9.060;2022-07-21T05:13:17;21.17;;;19.27;;
55362;SDS011;41244;49.242;9.060;2022-07-21T05:15:43;22.35;;;20.20;;
55362;SDS011;41244;49.242;9.060;2022-07-21T05:18:09;21.65;;;19.45;;
55362;SDS011;41244;49.242;9.060;2022-07-21T05:20:35;24.58;;;22.05;;
55362;SDS011;41244;49.242;9.060;2022-07-21T05:23:01;22.67;;;20.40;;
55362;SDS011;41244;49.242;9.060;2022-07-21T05:25:29;24.27;;;21.83;;
55362;SDS011;41244;49.242;9.060;2022-07-21T05:27:57;23.08;;;20.77;;
55362;SDS011;41244;49.242;9.060;2022-07-21T05:30:23;25.15;;;22.65;;
55362;SDS011;41244;49.242;9.060;2022-07-21T05:32:49;23.45;;;21.35;;
55362;SDS011;41244;49.242;9.060;2022-07-21T05:35:15;24.92;;;22.35;;
55362;SDS011;41244;49.242;9.060;2022-07-21T05:37:41;24.60;;;22.40;;
55362;SDS011;41244;49.242;9.060;2022-07-21T05:40:08;23.88;;;21.35;;
55362;SDS011;41244;49.242;9.060;2022-07-21T05:42:35;23.35;;;21.05;;
55362;SDS011;41244;49.242;9.060;2022-07-21T05:45:01;22.33;;;20.13;;
55362;SDS011;41244;49.242;9.060;2022-07-21T05:47:28;22.98;;;20.55;;
55362;SDS011;41244;49.242;9.060;2022-07-21T05:49:54;24.20;;;20.27;;
55362;SDS011;41244;49.242;9.060;2022-07-21T05:52:20;20.95;;;18.83;;
55362;SDS011;41244;49.242;9.060;2022-07-21T05:54:46;22.42;;;20.33;;
55362;SDS011;41244;49.242;9.060;2022-07-21T06:00:53;35.22;;;31.70;;
55362;SDS011;41244;49.242;9.060;2022-07-21T06:03:35;21.65;;;19.55;;
55362;SDS011;41244;49.242;9.060;2022-07-21T06:06:05;19.08;;;17.08;;
55362;SDS011;41244;49.242;9.060;2022-07-21T06:08:31;21.80;;;19.42;;
55362;SDS011;41244;49.242;9.060;2022-07-21T06:10:57;18.45;;;16.65;;
55362;SDS011;41244;49.242;9.060;2022-07-21T06:13:23;17.63;;;16.02;;
55362;SDS011;41244;49.242;9.060;2022-07-21T06:15:48;19.15;;;17.20;;
55362;SDS011;41244;49.242;9.060;2022-07-21T06:18:14;17.92;;;16.05;;
55362;SDS011;41244;49.242;9.060;2022-07-21T06:20:40;17.73;;;15.82;;
55362;SDS011;41244;49.242;9.060;2022-07-21T06:23:07;17.48;;;15.77;;
55362;SDS011;41244;49.242;9.060;2022-07-21T06:25:33;17.65;;;15.68;;
55362;SDS011;41244;49.242;9.060;2022-07-21T06:27:59;16.48;;;14.85;;
55362;SDS011;41244;49.242;9.060;2022-07-21T06:30:24;16.20;;;14.57;;
55362;SDS011;41244;49.242;9.060;2022-07-21T06:32:50;15.05;;;13.52;;
55362;SDS011;41244;49.242;9.060;2022-07-21T06:35:16;15.02;;;13.40;;
55362;SDS011;41244;49.242;9.060;2022-07-21T06:37:45;15.55;;;13.25;;
55362;SDS011;41244;49.242;9.060;2022-07-21T06:40:11;14.43;;;13.02;;
55362;SDS011;41244;49.242;9.060;2022-07-21T06:42:38;13.70;;;12.43;;
55362;SDS011;41244;49.242;9.060;2022-07-21T06:45:04;13.52;;;12.23;;
55362;SDS011;41244;49.242;9.060;2022-07-21T06:47:30;15.73;;;13.32;;
55362;SDS011;41244;49.242;9.060;2022-07-21T06:49:56;13.43;;;12.23;;
55362;SDS011;41244;49.242;9.060;2022-07-21T06:52:28;14.35;;;12.90;;
55362;SDS011;41244;49.242;9.060;2022-07-21T06:54:55;13.52;;;12.23;;
55362;SDS011;41244;49.242;9.060;2022-07-21T06:57:21;13.38;;;12.07;;
55362;SDS011;41244;49.242;9.060;2022-07-21T06:59:47;13.65;;;11.88;;
55362;SDS011;41244;49.242;9.060;2022-07-21T07:02:12;14.60;;;13.20;;
55362;SDS011;41244;49.242;9.060;2022-07-21T07:04:38;12.20;;;10.93;;
55362;SDS011;41244;49.242;9.060;2022-07-21T07:07:04;13.30;;;12.05;;
55362;SDS011;41244;49.242;9.060;2022-07-21T07:09:30;12.95;;;11.20;;
55362;SDS011;41244;49.242;9.060;2022-07-21T07:11:56;13.30;;;11.52;;
55362;SDS011;41244;49.242;9.060;2022-07-21T07:14:32;12.48;;;11.27;;
55362;SDS011;41244;49.242;9.060;2022-07-21T07:16:59;12.77;;;11.57;;
55362;SDS011;41244;49.242;9.060;2022-07-21T07:19:26;13.13;;;11.82;;
55362;SDS011;41244;49.242;9.060;2022-07-21T07:21:53;14.07;;;11.85;;
55362;SDS011;41244;49.242;9.060;2022-07-21T07:24:19;13.30;;;11.75;;
55362;SDS011;41244;49.242;9.060;2022-07-21T07:26:45;12.93;;;11.60;;
55362;SDS011;41244;49.242;9.060;2022-07-21T07:29:11;12.80;;;11.60;;
55362;SDS011;41244;49.242;9.060;2022-07-21T07:31:37;11.85;;;10.52;;
55362;SDS011;41244;49.242;9.060;2022-07-21T07:34:04;12.10;;;10.90;;
55362;SDS011;41244;49.242;9.060;2022-07-21T07:36:30;11.73;;;10.48;;
55362;SDS011;41244;49.242;9.060;2022-07-21T07:38:57;13.82;;;12.15;;
55362;SDS011;41244;49.242;9.060;2022-07-21T07:41:24;13.27;;;11.88;;
55362;SDS011;41244;49.242;9.060;2022-07-21T07:43:50;11.02;;;9.93;;
55362;SDS011;41244;49.242;9.060;2022-07-21T07:46:18;11.48;;;10.30;;
55362;SDS011;41244;49.242;9.060;2022-07-21T07:48:44;12.73;;;9.40;;
55362;SDS011;41244;49.242;9.060;2022-07-21T07:51:11;10.95;;;9.80;;
55362;SDS011;41244;49.242;9.060;2022-07-21T07:53:37;11.27;;;10.18;;
55362;SDS011;41244;49.242;9.060;2022-07-21T07:56:04;11.77;;;10.57;;
55362;SDS011;41244;49.242;9.060;2022-07-21T07:58:30;13.07;;;10.45;;
55362;SDS011;41244;49.242;9.060;2022-07-21T08:00:56;10.80;;;9.80;;
55362;SDS011;41244;49.242;9.060;2022-07-21T08:03:23;11.77;;;10.57;;
55362;SDS011;41244;49.242;9.060;2022-07-21T08:05:49;10.57;;;9.57;;
55362;SDS011;41244;49.242;9.060;2022-07-21T08:08:15;10.73;;;9.65;;
55362;SDS011;41244;49.242;9.060;2022-07-21T08:10:42;10.98;;;9.90;;
55362;SDS011;41244;49.242;9.060;2022-07-21T08:13:11;15.70;;;10.30;;
55362;SDS011;41244;49.242;9.060;2022-07-21T08:15:38;12.43;;;9.80;;
55362;SDS011;41244;49.242;9.060;2022-07-21T08:18:05;10.85;;;9.45;;
55362;SDS011;41244;49.242;9.060;2022-07-21T08:20:31;10.52;;;9.52;;
55362;SDS011;41244;49.242;9.060;2022-07-21T08:22:58;10.55;;;9.63;;
55362;SDS011;41244;49.242;9.060;2022-07-21T08:25:24;12.88;;;9.50;;
55362;SDS011;41244;49.242;9.060;2022-07-21T08:27:49;10.20;;;9.30;;
55362;SDS011;41244;49.242;9.060;2022-07-21T08:30:15;11.10;;;9.55;;
55362;SDS011;41244;49.242;9.060;2022-07-21T08:32:41;9.68;;;8.68;;
55362;SDS011;41244;49.242;9.060;2022-07-21T08:35:07;14.80;;;11.38;;
55362;SDS011;41244;49.242;9.060;2022-07-21T08:37:37;14.15;;;10.88;;
55362;SDS011;41244;49.242;9.060;2022-07-21T08:40:05;10.00;;;8.57;;
55362;SDS011;41244;49.242;9.060;2022-07-21T08:42:33;12.30;;;8.95;;
55362;SDS011;41244;49.242;9.060;2022-07-21T08:44:59;9.10;;;8.20;;
55362;SDS011;41244;49.242;9.060;2022-07-21T08:47:26;9.65;;;8.50;;
55362;SDS011;41244;49.242;9.060;2022-07-21T08:49:52;9.48;;;8.38;;
55362;SDS011;41244;49.242;9.060;2022-07-21T08:52:19;9.18;;;8.38;;
55362;SDS011;41244;49.242;9.060;2022-07-21T08:54:45;11.20;;;9.60;;
55362;SDS011;41244;49.242;9.060;2022-07-21T08:57:11;9.70;;;8.73;;
55362;SDS011;41244;49.242;9.060;2022-07-21T08:59:37;11.50;;;9.45;;
55362;SDS011;41244;49.242;9.060;2022-07-21T09:02:03;12.05;;;9.32;;
55362;SDS011;41244;49.242;9.060;2022-07-21T09:04:32;9.90;;;9.00;;
55362;SDS011;41244;49.242;9.060;2022-07-21T09:07:04;9.98;;;8.63;;
55362;SDS011;41244;49.242;9.060;2022-07-21T09:09:32;9.97;;;8.97;;
55362;SDS011;41244;49.242;9.060;2022-07-21T09:12:00;8.57;;;7.78;;
55362;SDS011;41244;49.242;9.060;2022-07-21T09:14:31;8.77;;;7.97;;
55362;SDS011;41244;49.242;9.060;2022-07-21T09:17:02;10.45;;;8.18;;
55362;SDS011;41244;49.242;9.060;2022-07-21T09:19:30;9.27;;;8.38;;
55362;SDS011;41244;49.242;9.060;2022-07-21T09:22:02;9.43;;;7.72;;
55362;SDS011;41244;49.242;9.060;2022-07-21T09:24:32;8.68;;;7.82;;
55362;SDS011;41244;49.242;9.060;2022-07-21T09:29:57;10.25;;;8.25;;
55362;SDS011;41244;49.242;9.060;2022-07-21T09:32:26;8.32;;;7.57;;
55362;SDS011;41244;49.242;9.060;2022-07-21T09:35:08;8.48;;;7.60;;
55362;SDS011;41244;49.242;9.060;2022-07-21T09:37:39;11.02;;;8.52;;
55362;SDS011;41244;49.242;9.060;2022-07-21T09:40:10;11.02;;;8.30;;
55362;SDS011;41244;49.242;9.060;2022-07-21T09:42:39;8.50;;;7.65;;
55362;SDS011;41244;49.242;9.060;2022-07-21T09:45:14;9.00;;;7.85;;
55362;SDS011;41244;49.242;9.060;2022-07-21T09:47:44;10.18;;;8.68;;
55362;SDS011;41244;49.242;9.060;2022-07-21T09:50:12;12.43;;;9.82;;
55362;SDS011;41244;49.242;9.060;2022-07-21T09:52:41;10.70;;;8.85;;
55362;SDS011;41244;49.242;9.060;2022-07-21T09:55:10;9.68;;;8.02;;
55362;SDS011;41244;49.242;9.060;2022-07-21T09:57:39;8.90;;;8.10;;
55362;SDS011;41244;49.242;9.060;2022-07-21T10:00:06;9.82;;;8.45;;
55362;SDS011;41244;49.242;9.060;2022-07-21T10:02:35;8.65;;;7.75;;
55362;SDS011;41244;49.242;9.060;2022-07-21T10:07:36;7.97;;;7.18;;
55362;SDS011;41244;49.242;9.060;2022-07-21T10:10:05;7.00;;;6.30;;
55362;SDS011;41244;49.242;9.060;2022-07-21T10:12:31;6.55;;;5.95;;
55362;SDS011;41244;49.242;9.060;2022-07-21T10:14:57;9.02;;;6.68;;
55362;SDS011;41244;49.242;9.060;2022-07-21T10:17:24;8.00;;;6.93;;
55362;SDS011;41244;49.242;9.060;2022-07-21T10:25:38;8.38;;;6.95;;
55362;SDS011;41244;49.242;9.060;2022-07-21T10:28:15;7.68;;;6.97;;
55362;SDS011;41244;49.242;9.060;2022-07-21T10:33:14;7.60;;;6.05;;
55362;SDS011;41244;49.242;9.060;2022-07-21T10:35:45;6.80;;;6.20;;
55362;SDS011;41244;49.242;9.060;2022-07-21T10:38:24;7.10;;;5.97;;
55362;SDS011;41244;49.242;9.060;2022-07-21T10:40:53;7.97;;;5.40;;
55362;SDS011;41244;49.242;9.060;2022-07-21T10:45:49;9.75;;;6.20;;
55362;SDS011;41244;49.242;9.060;2022-07-21T10:53:38;6.65;;;6.07;;
55362;SDS011;41244;49.242;9.060;2022-07-21T10:56:05;6.93;;;6.22;;
55362;SDS011;41244;49.242;9.060;2022-07-21T10:58:32;6.93;;;6.18;;
55362;SDS011;41244;49.242;9.060;2022-07-21T11:03:41;6.70;;;6.00;;
55362;SDS011;41244;49.242;9.060;2022-07-21T11:08:48;6.70;;;6.10;;
55362;SDS011;41244;49.242;9.060;2022-07-21T11:11:24;7.43;;;6.15;;
55362;SDS011;41244;49.242;9.060;2022-07-21T11:22:41;8.70;;;5.82;;
55362;SDS011;41244;49.242;9.060;2022-07-21T11:27:31;7.05;;;6.13;;
55362;SDS011;41244;49.242;9.060;2022-07-21T11:30:05;6.85;;;6.25;;
55362;SDS011;41244;49.242;9.060;2022-07-21T11:32:33;7.18;;;6.47;;
55362;SDS011;41244;49.242;9.060;2022-07-21T11:34:59;9.52;;;6.55;;
55362;SDS011;41244;49.242;9.060;2022-07-21T11:42:34;7.55;;;6.53;;
55362;SDS011;41244;49.242;9.060;2022-07-21T11:45:00;9.63;;;7.45;;
55362;SDS011;41244;49.242;9.060;2022-07-21T11:47:27;9.07;;;7.05;;
55362;SDS011;41244;49.242;9.060;2022-07-21T11:49:53;7.25;;;6.65;;
55362;SDS011;41244;49.242;9.060;2022-07-21T11:52:30;8.45;;;6.53;;
55362;SDS011;41244;49.242;9.060;2022-07-21T11:54:59;7.55;;;6.85;;
55362;SDS011;41244;49.242;9.060;2022-07-21T11:57:26;6.85;;;6.15;;
55362;SDS011;41244;49.242;9.060;2022-07-21T11:59:53;6.47;;;5.88;;
55362;SDS011;41244;49.242;9.060;2022-07-21T12:02:25;7.10;;;6.40;;
55362;SDS011;41244;49.242;9.060;2022-07-21T12:10:04;7.55;;;6.50;;
55362;SDS011;41244;49.242;9.060;2022-07-21T12:18:08;7.78;;;7.07;;
55362;SDS011;41244;49.242;9.060;2022-07-21T12:20:46;6.47;;;5.95;;
55362;SDS011;41244;49.242;9.060;2022-07-21T12:23:23;7.00;;;6.28;;
55362;SDS011;41244;49.242;9.060;2022-07-21T12:25:55;7.07;;;6.03;;
55362;SDS011;41244;49.242;9.060;2022-07-21T12:28:41;8.40;;;7.43;;
55362;SDS011;41244;49.242;9.060;2022-07-21T12:31:10;7.00;;;6.30;;
55362;SDS011;41244;49.242;9.060;2022-07-21T12:33:39;8.55;;;5.95;;
55362;SDS011;41244;49.242;9.060;2022-07-21T12:36:09;6.75;;;6.03;;
55362;SDS011;41244;49.242;9.060;2022-07-21T12:38:45;6.40;;;5.80;;
55362;SDS011;41244;49.242;9.060;2022-07-21T12:41:13;6.28;;;5.65;;
55362;SDS011;41244;49.242;9.060;2022-07-21T12:46:27;6.70;;;6.03;;
55362;SDS011;41244;49.242;9.060;2022-07-21T12:49:02;6.10;;;5.50;;
55362;SDS011;41244;49.242;9.060;2022-07-21T12:51:30;6.00;;;5.40;;
55362;SDS011;41244;49.242;9.060;2022-07-21T12:53:55;8.68;;;5.65;;
55362;SDS011;41244;49.242;9.060;2022-07-21T12:56:25;6.43;;;5.40;;
55362;SDS011;41244;49.242;9.060;2022-07-21T12:58:54;9.18;;;5.00;;
55362;SDS011;41244;49.242;9.060;2022-07-21T13:01:22;5.97;;;5.10;;
55362;SDS011;41244;49.242;9.060;2022-07-21T13:03:50;5.95;;;5.32;;
55362;SDS011;41244;49.242;9.060;2022-07-21T13:06:16;5.38;;;4.90;;
55362;SDS011;41244;49.242;9.060;2022-07-21T13:08:42;8.02;;;5.70;;
55362;SDS011;41244;49.242;9.060;2022-07-21T13:11:13;8.70;;;5.43;;
55362;SDS011;41244;49.242;9.060;2022-07-21T13:13:50;6.45;;;5.15;;
55362;SDS011;41244;49.242;9.060;2022-07-21T13:16:16;6.13;;;5.03;;
55362;SDS011;41244;49.242;9.060;2022-07-21T13:18:43;5.53;;;5.03;;
55362;SDS011;41244;49.242;9.060;2022-07-21T13:21:09;6.18;;;5.63;;
55362;SDS011;41244;49.242;9.060;2022-07-21T13:23:35;5.70;;;5.13;;
55362;SDS011;41244;49.242;9.060;2022-07-21T13:26:02;7.55;;;5.63;;
55362;SDS011;41244;49.242;9.060;2022-07-21T13:28:28;7.20;;;5.50;;
55362;SDS011;41244;49.242;9.060;2022-07-21T13:30:53;5.68;;;5.18;;
55362;SDS011;41244;49.242;9.060;2022-07-21T13:33:19;6.45;;;5.10;;
55362;SDS011;41244;49.242;9.060;2022-07-21T13:35:45;7.68;;;4.57;;
55362;SDS011;41244;49.242;9.060;2022-07-21T13:38:11;5.45;;;4.88;;
55362;SDS011;41244;49.242;9.060;2022-07-21T13:40:38;6.40;;;4.85;;
55362;SDS011;41244;49.242;9.060;2022-07-21T13:43:04;6.22;;;5.20;;
55362;SDS011;41244;49.242;9.060;2022-07-21T13:45:30;5.80;;;5.20;;
55362;SDS011;41244;49.242;9.060;2022-07-21T13:47:56;5.47;;;4.75;;
55362;SDS011;41244;49.242;9.060;2022-07-21T13:50:22;4.93;;;4.43;;
55362;SDS011;41244;49.242;9.060;2022-07-21T13:52:48;5.65;;;5.15;;
55362;SDS011;41244;49.242;9.060;2022-07-21T13:55:14;6.03;;;5.40;;
55362;SDS011;41244;49.242;9.060;2022-07-21T13:57:39;6.40;;;4.88;;
55362;SDS011;41244;49.242;9.060;2022-07-21T14:00:06;5.35;;;4.80;;
55362;SDS011;41244;49.242;9.060;2022-07-21T14:02:35;7.78;;;4.55;;
55362;SDS011;41244;49.242;9.060;2022-07-21T14:05:01;5.63;;;5.13;;
55362;SDS011;41244;49.242;9.060;2022-07-21T14:07:28;5.53;;;5.03;;
55362;SDS011;41244;49.242;9.060;2022-07-21T14:09:55;5.15;;;4.65;;
55362;SDS011;41244;49.242;9.060;2022-07-21T14:12:22;5.78;;;4.82;;
55362;SDS011;41244;49.242;9.060;2022-07-21T14:14:49;5.22;;;4.72;;
55362;SDS011;41244;49.242;9.060;2022-07-21T14:17:15;5.30;;;4.82;;
55362;SDS011;41244;49.242;9.060;2022-07-21T14:19:53;6.25;;;5.65;;
55362;SDS011;41244;49.242;9.060;2022-07-21T14:22:26;5.53;;;5.03;;
55362;SDS011;41244;49.242;9.060;2022-07-21T14:24:52;5.45;;;4.95;;
55362;SDS011;41244;49.242;9.060;2022-07-21T14:27:40;5.63;;;5.13;;
55362;SDS011;41244;49.242;9.060;2022-07-21T14:30:05;5.47;;;4.93;;
55362;SDS011;41244;49.242;9.060;2022-07-21T14:32:32;5.85;;;4.97;;
55362;SDS011;41244;49.242;9.060;2022-07-21T14:35:01;5.68;;;5.13;;
55362;SDS011;41244;49.242;9.060;2022-07-21T14:44:59;8.05;;;5.22;;
55362;SDS011;41244;49.242;9.060;2022-07-21T14:47:43;6.25;;;4.88;;
55362;SDS011;41244;49.242;9.060;2022-07-21T14:50:09;5.30;;;4.65;;
55362;SDS011;41244;49.242;9.060;2022-07-21T14:52:35;8.20;;;5.00;;
55362;SDS011;41244;49.242;9.060;2022-07-21T14:55:00;6.15;;;5.20;;
55362;SDS011;41244;49.242;9.060;2022-07-21T14:57:29;6.15;;;5.55;;
55362;SDS011;41244;49.242;9.060;2022-07-21T14:59:58;7.20;;;6.50;;
55362;SDS011;41244;49.242;9.060;2022-07-21T15:02:28;43.42;;;34.60;;
55362;SDS011;41244;49.242;9.060;2022-07-21T15:04:54;12.75;;;10.27;;
55362;SDS011;41244;49.242;9.060;2022-07-21T15:07:20;6.75;;;5.20;;
55362;SDS011;41244;49.242;9.060;2022-07-21T15:09:49;5.82;;;5.30;;
55362;SDS011;41244;49.242;9.060;2022-07-21T15:12:18;7.53;;;5.15;;
55362;SDS011;41244;49.242;9.060;2022-07-21T15:14:46;5.43;;;4.90;;
55362;SDS011;41244;49.242;9.060;2022-07-21T15:17:12;5.70;;;5.20;;
55362;SDS011;41244;49.242;9.060;2022-07-21T15:19:38;15.10;;;12.65;;
55362;SDS011;41244;49.242;9.060;2022-07-21T15:22:10;6.07;;;5.50;;
55362;SDS011;41244;49.242;9.060;2022-07-21T15:24:42;6.10;;;5.07;;
55362;SDS011;41244;49.242;9.060;2022-07-21T15:27:14;5.88;;;5.28;;
55362;SDS011;41244;49.242;9.060;2022-07-21T15:29:40;6.93;;;6.28;;
55362;SDS011;41244;49.242;9.060;2022-07-21T15:32:06;8.07;;;5.22;;
55362;SDS011;41244;49.242;9.060;2022-07-21T15:34:34;5.70;;;5.10;;
55362;SDS011;41244;49.242;9.060;2022-07-21T15:37:01;6.50;;;5.15;;
55362;SDS011;41244;49.242;9.060;2022-07-21T15:39:33;6.43;;;5.03;;
55362;SDS011;41244;49.242;9.060;2022-07-21T15:42:00;7.43;;;4.95;;